Julesburg, CO (80737)

7:47 AM MDT on July 10, 2014 (GMT -0600)
Holyoke Municipal (KHEQ) Elev 3730 ft | 40.57 °N, 102.28 °W | Change Station

Current weather conditions updated 12 minutes ago

Mostly Cloudy
Mostly Cloudy
66 °F
Feels Like 66 °F
N
14
Wind Variable Wind from South
Gusts 22 mph

Today is forecast to be nearly the same temperature as yesterday.

Today
High -- | Low -- °F
--% Chance of Precip.
Yesterday
High -- | Low -- °F
Precip. -- in
5:26 AM 8:21 PM
Waxing Gibbous, 95% visible
Pressure 30.01 in
Visibility 10.0 miles
Clouds Mostly Cloudy 800 ft
Dew Point 61 °F
Humidity 83%
Rainfall 0.00 in
Snow Depth Not available.
UV 1 out of 12
Pollen 4.80 out of 12
Air Quality Not available.
Flu Activity Local Activity
METAR KHEQ 101335Z AUTO 17012G19KT 10SM BKN008 19/16 A3001 RMK AO2

More Conditions Fewer Conditions

Pressure 30.01 in
Visibility 10.0 miles
Clouds Mostly Cloudy 800 ft
Dew Point 61 °F
Humidity 83%
Rainfall 0.00 in
Snow Depth Not available.
UV 1 out of 12
Pollen 4.80 out of 12
Air Quality Not available.
Flu Activity Local Activity
METAR KHEQ 101335Z AUTO 17012G19KT 10SM BKN008 19/16 A3001 RMK AO2

More Conditions Fewer Conditions

10-Day Weather Forecast

Almanac

Astronomy

Jul. 10, 2014 Rise Set
Actual Time 5:26 AM MDT 8:21 PM MDT
Civil Twilight 4:53 AM MDT 8:54 PM MDT
Nautical Twilight 4:11 AM MDT 9:35 PM MDT
Astronomical Twilight 3:23 AM MDT 10:24 PM MDT
Moon 6:36 PM MDT 3:40 AM MDT
Length of Visible Light 16h 01m
Length of Day
14h 55m
Tomorrow will be 1m 11s shorter.
Waxing Gibbous, 95% of the Moon is Illuminated
Today
Waxing Gibbous
Jul 12
Full
Jul 18
Last Quarter
Jul 26
New
Aug 3
First Quarter

Today's Extremes

State Highs State Lows

Community

WunderPhotos

Upload Photos

1,732,141 photos uploaded!

Nearby

Snow Depth

Station Depth Elevation
Copeland Lake 0 in 8600 ft
Wild Basin 0 in 9560 ft
University Camp 0 in 10300 ft
Deadman Hill 0 in 10220 ft
Willow Park 0 in 10700 ft

Earthquake Activity

City Distance Mag. Time & Date
No recent earthquake activity has been reported nearby.
Minimum magnitude displayed is 2.5.

Coastal Water Temperatures

Place Temperature
No Stations Reporting

Nearby Weather Stations

Station Location Temp. Dew Point Humidity Wind Precip. Elev Updated Type
MesoWest BARTN2 , Big Springs, NE 64 °F - - North  at  - 0.00 in / hr 3413 ft 7:00 AM MDT MADIS
MesoWest CHAPL2 , Ovid, CO 62 °F - - SSE  at  14 mph 0.00 in / hr 3582 ft 6:00 AM MDT MADIS
MesoWest BIGSWS , Big Springs, NE 66 °F - - WSW  at  11 mph 0.00 in / hr 3356 ft 6:00 AM MDT MADIS
MesoWest BRULE1 , Brule, NE 66 °F - - North  at  - 0.00 in / hr 3281 ft 7:00 AM MDT MADIS

Show More Stations Show Fewer Stations